Time;durP1;ratioP1;P1;durP2;ratioP2;P2;SDS_P1;SDS_P2;PMS_P1;PMS_P2;Temp;Humidity;BMP_temperature;BMP_pressure;BME280_temperature;BME280_humidity;BME280_pressure;Samples;Min_cycle;Max_cycle;Signal;HPM_P1;HPM_P2
2023/12/06 00:01:30;;;;;;;12.50;12.10;;;20.80;47.80;;;;;;5021312;28;20535;-69
2023/12/06 00:03:57;;;;;;;12.10;11.80;;;20.80;47.70;;;;;;5023134;28;20484;-68
2023/12/06 00:06:25;;;;;;;12.90;12.40;;;20.80;47.80;;;;;;5022432;28;20473;-68
2023/12/06 00:08:53;;;;;;;13.00;12.60;;;20.70;47.90;;;;;;5019982;28;20430;-68
2023/12/06 00:11:20;;;;;;;12.13;11.83;;;20.70;47.80;;;;;;5019794;28;20446;-68
2023/12/06 00:13:47;;;;;;;12.30;11.90;;;20.70;47.90;;;;;;5026480;28;20465;-68
2023/12/06 00:16:14;;;;;;;13.00;12.60;;;20.70;47.90;;;;;;5027529;28;20987;-68
2023/12/06 00:18:43;;;;;;;12.70;12.30;;;20.70;48.00;;;;;;5023950;28;20875;-68
2023/12/06 00:21:10;;;;;;;12.63;12.23;;;20.60;47.90;;;;;;5023794;28;20949;-68
2023/12/06 00:23:37;;;;;;;12.43;12.03;;;20.60;47.90;;;;;;5025965;28;20474;-68
2023/12/06 00:26:06;;;;;;;12.03;11.63;;;20.60;48.00;;;;;;5027103;28;20951;-68
2023/12/06 00:28:33;;;;;;;12.40;11.97;;;20.70;48.00;;;;;;5025122;28;20513;-68
2023/12/06 00:31:00;;;;;;;12.50;12.10;;;20.60;48.00;;;;;;5028212;28;20476;-68
2023/12/06 00:33:26;;;;;;;12.70;12.30;;;20.60;48.00;;;;;;5025961;28;20473;-68
2023/12/06 00:35:52;;;;;;;12.33;12.03;;;20.60;48.10;;;;;;5023659;28;20500;-68
2023/12/06 00:38:19;;;;;;;12.87;12.57;;;20.60;48.00;;;;;;5023511;28;20473;-68
2023/12/06 00:40:46;;;;;;;12.33;12.00;;;20.60;48.00;;;;;;5015426;28;20509;-68
2023/12/06 00:43:14;;;;;;;13.60;13.20;;;20.60;48.10;;;;;;5023482;28;20474;-68
2023/12/06 00:45:41;;;;;;;13.20;12.80;;;20.60;48.10;;;;;;5026122;28;20998;-68
2023/12/06 00:48:08;;;;;;;13.30;12.90;;;20.50;48.10;;;;;;5026647;28;20465;-68
2023/12/06 00:50:35;;;;;;;12.70;12.40;;;20.50;48.10;;;;;;5024647;28;20477;-68
2023/12/06 00:53:02;;;;;;;13.23;12.73;;;20.50;48.00;;;;;;5023320;28;20477;-68
2023/12/06 00:55:29;;;;;;;13.50;13.00;;;20.50;48.10;;;;;;5023874;28;20504;-68
2023/12/06 00:57:56;;;;;;;13.00;12.60;;;20.50;48.10;;;;;;5026461;28;20481;-68
2023/12/06 01:00:24;;;;;;;15.23;14.83;;;20.50;48.10;;;;;;5026118;28;20560;-68
2023/12/06 01:02:51;;;;;;;13.20;12.80;;;20.50;48.10;;;;;;5023079;28;20469;-68
2023/12/06 01:05:18;;;;;;;13.30;12.80;;;20.50;48.20;;;;;;5022732;28;20462;-68
2023/12/06 01:07:44;;;;;;;12.90;12.53;;;20.50;48.20;;;;;;5025979;28;20543;-68
2023/12/06 01:10:11;;;;;;;13.70;13.20;;;20.50;48.20;;;;;;5026346;28;20464;-68
2023/12/06 01:12:38;;;;;;;12.87;12.47;;;20.50;48.20;;;;;;5024079;28;20449;-68
2023/12/06 01:15:06;;;;;;;12.30;12.00;;;20.40;48.10;;;;;;5022577;28;20501;-68
2023/12/06 01:17:34;;;;;;;13.00;12.60;;;20.40;48.20;;;;;;5024113;28;20484;-68
2023/12/06 01:20:02;;;;;;;13.17;12.77;;;20.40;48.20;;;;;;5026116;28;20508;-68
2023/12/06 01:22:29;;;;;;;13.43;12.83;;;20.40;48.10;;;;;;5025013;28;20446;-68
2023/12/06 01:24:58;;;;;;;13.00;12.60;;;20.40;48.20;;;;;;5021488;28;20492;-68
2023/12/06 01:27:25;;;;;;;13.57;13.17;;;20.30;48.10;;;;;;5022668;28;20483;-69
2023/12/06 01:29:51;;;;;;;12.83;12.43;;;20.30;48.10;;;;;;5026047;28;20476;-69
2023/12/06 01:32:18;;;;;;;13.80;13.30;;;20.30;48.10;;;;;;5025929;28;20480;-68
2023/12/06 01:34:47;;;;;;;13.10;12.70;;;20.30;48.10;;;;;;5022443;28;20504;-68
2023/12/06 01:37:14;;;;;;;12.80;12.40;;;20.30;48.10;;;;;;5022333;28;20473;-68
2023/12/06 01:39:41;;;;;;;13.20;12.70;;;20.30;48.10;;;;;;5024863;28;21035;-68
2023/12/06 01:42:08;;;;;;;13.17;12.67;;;20.30;48.10;;;;;;5025787;28;20492;-68
2023/12/06 01:44:35;;;;;;;13.57;13.07;;;20.30;48.10;;;;;;5023908;28;20497;-69
2023/12/06 01:47:03;;;;;;;13.47;12.97;;;20.30;48.10;;;;;;5022232;28;20473;-69
2023/12/06 01:49:31;;;;;;;13.50;13.10;;;20.30;48.10;;;;;;5023258;28;20477;-69
2023/12/06 01:52:00;;;;;;;13.37;12.97;;;20.30;48.10;;;;;;5025493;28;20465;-69
2023/12/06 01:54:27;;;;;;;13.27;12.77;;;20.30;48.10;;;;;;5024863;28;21030;-68
2023/12/06 01:56:54;;;;;;;13.67;13.27;;;20.30;48.20;;;;;;5022071;28;20534;-68
2023/12/06 01:59:21;;;;;;;13.60;13.20;;;20.30;48.30;;;;;;5022214;28;20482;-68
2023/12/06 02:01:48;;;;;;;13.90;13.40;;;20.30;48.20;;;;;;5021759;28;20484;-68
2023/12/06 02:04:15;;;;;;;13.27;12.87;;;20.30;48.20;;;;;;5021905;28;20512;-68
2023/12/06 02:06:42;;;;;;;12.73;12.33;;;20.30;48.30;;;;;;5024325;28;20482;-68
2023/12/06 02:09:12;;;;;;;13.57;13.17;;;20.30;48.80;;;;;;5022050;28;20865;-68
2023/12/06 02:11:39;;;;;;;13.50;13.10;;;20.20;48.20;;;;;;5023046;28;20481;-68
2023/12/06 02:14:06;;;;;;;13.97;13.53;;;20.20;48.30;;;;;;5025492;28;20485;-68
2023/12/06 02:16:34;;;;;;;13.90;13.40;;;20.20;48.30;;;;;;5023655;28;20556;-68
2023/12/06 02:19:01;;;;;;;13.70;13.17;;;20.20;48.30;;;;;;5021714;28;20949;-68
2023/12/06 02:21:28;;;;;;;14.10;13.60;;;20.20;48.40;;;;;;5021857;28;21057;-68
2023/12/06 02:23:58;;;;;;;13.07;12.60;;;20.20;48.40;;;;;;5024890;28;20497;-68
2023/12/06 02:26:27;;;;;;;13.30;12.90;;;20.20;48.50;;;;;;5016819;28;20470;-68
2023/12/06 02:28:55;;;;;;;13.83;13.33;;;20.10;48.50;;;;;;5025004;28;20970;-68
2023/12/06 02:31:22;;;;;;;15.90;15.20;;;20.10;48.40;;;;;;5024751;28;20444;-68
2023/12/06 02:33:51;;;;;;;15.00;14.50;;;20.10;48.40;;;;;;5021259;28;20470;-68
2023/12/06 02:36:19;;;;;;;14.17;13.70;;;20.10;48.50;;;;;;5021168;28;20481;-68
2023/12/06 02:38:47;;;;;;;14.87;14.37;;;20.10;48.50;;;;;;5023963;28;20476;-68
2023/12/06 02:41:17;;;;;;;15.03;14.50;;;20.10;48.50;;;;;;5024504;28;20520;-68
2023/12/06 02:43:45;;;;;;;15.70;15.10;;;20.10;48.50;;;;;;5021757;28;20456;-68
2023/12/06 02:46:12;;;;;;;15.93;15.23;;;20.10;48.50;;;;;;5021047;28;20517;-68
2023/12/06 02:48:40;;;;;;;14.60;14.10;;;20.10;48.40;;;;;;5023036;28;20470;-68
2023/12/06 02:51:07;;;;;;;15.50;14.90;;;20.10;48.40;;;;;;5024263;28;20438;-68
2023/12/06 02:53:34;;;;;;;14.97;14.37;;;20.10;48.40;;;;;;5022823;28;20584;-68
2023/12/06 02:56:01;;;;;;;14.80;14.17;;;20.10;48.30;;;;;;5021137;28;20894;-68
2023/12/06 02:58:28;;;;;;;14.10;13.60;;;20.10;48.40;;;;;;5021305;28;20496;-68
2023/12/06 03:00:56;;;;;;;15.30;14.73;;;20.10;48.40;;;;;;5024063;28;20509;-68
2023/12/06 03:03:23;;;;;;;14.50;13.90;;;20.10;48.40;;;;;;5024172;28;20472;-68
2023/12/06 03:05:49;;;;;;;15.43;14.80;;;20.10;48.40;;;;;;5020620;28;20493;-68
2023/12/06 03:08:16;;;;;;;15.93;15.23;;;20.00;48.30;;;;;;5020762;28;20540;-68
2023/12/06 03:10:43;;;;;;;15.50;14.90;;;20.10;48.50;;;;;;5022864;28;20202;-68
2023/12/06 03:13:09;;;;;;;15.20;14.70;;;20.00;48.40;;;;;;5023973;28;20489;-67
2023/12/06 03:15:36;;;;;;;15.07;14.50;;;20.00;48.50;;;;;;5022471;28;20563;-68
2023/12/06 03:18:04;;;;;;;14.80;14.30;;;20.00;48.50;;;;;;5020566;28;20203;-68
2023/12/06 03:20:31;;;;;;;15.63;15.03;;;20.00;48.50;;;;;;5020854;28;20512;-68
2023/12/06 03:22:58;;;;;;;15.27;14.67;;;20.00;48.60;;;;;;5023836;28;20472;-68
2023/12/06 03:25:25;;;;;;;15.40;14.80;;;20.00;48.60;;;;;;5023873;28;20488;-68
2023/12/06 03:27:52;;;;;;;15.57;14.97;;;20.00;48.60;;;;;;5023810;28;20469;-68
2023/12/06 03:30:19;;;;;;;14.80;14.30;;;20.00;48.50;;;;;;5023755;28;20456;-67
2023/12/06 03:32:45;;;;;;;15.20;14.60;;;20.00;48.50;;;;;;5017469;28;20477;-68
2023/12/06 03:35:14;;;;;;;15.27;14.67;;;19.90;48.50;;;;;;5019881;28;20490;-68
2023/12/06 03:37:41;;;;;;;15.43;14.83;;;19.90;48.50;;;;;;5022081;28;20473;-68
2023/12/06 03:40:08;;;;;;;15.53;14.87;;;19.90;48.50;;;;;;5023537;28;20519;-68
2023/12/06 03:42:35;;;;;;;15.30;14.80;;;19.90;48.60;;;;;;5022396;28;20491;-68
2023/12/06 03:45:02;;;;;;;16.00;15.20;;;19.90;48.60;;;;;;5018236;28;20489;-68
2023/12/06 03:47:29;;;;;;;15.10;14.50;;;19.90;48.60;;;;;;5022522;28;20473;-68
2023/12/06 03:49:56;;;;;;;14.70;14.20;;;19.90;48.60;;;;;;5020110;28;20849;-68
2023/12/06 03:52:25;;;;;;;15.37;14.67;;;19.90;48.70;;;;;;5020101;28;20470;-68
2023/12/06 03:54:51;;;;;;;14.33;13.83;;;19.90;48.60;;;;;;5023082;28;20492;-68
2023/12/06 03:57:18;;;;;;;15.80;15.20;;;19.90;48.50;;;;;;5023141;28;20479;-67
2023/12/06 03:59:45;;;;;;;15.17;14.60;;;19.90;48.50;;;;;;5020695;28;20473;-67
2023/12/06 04:02:12;;;;;;;18.53;17.77;;;19.90;48.50;;;;;;5020027;28;20834;-68
2023/12/06 04:04:39;;;;;;;15.60;15.00;;;19.90;48.50;;;;;;5021171;28;20505;-68
2023/12/06 04:07:06;;;;;;;16.80;16.00;;;19.90;48.50;;;;;;5023287;28;20469;-67
2023/12/06 04:09:34;;;;;;;15.03;14.43;;;19.90;48.50;;;;;;5022485;28;20879;-67
2023/12/06 04:12:01;;;;;;;16.30;15.70;;;19.90;48.60;;;;;;5019936;28;20447;-67
2023/12/06 04:14:28;;;;;;;15.13;14.63;;;19.90;48.60;;;;;;5019829;28;20499;-68
2023/12/06 04:16:55;;;;;;;15.90;15.30;;;19.90;48.60;;;;;;5011849;28;20478;-68
2023/12/06 04:19:22;;;;;;;15.47;14.77;;;19.90;48.50;;;;;;5019725;28;20946;-67
2023/12/06 04:21:48;;;;;;;16.30;15.70;;;19.90;48.50;;;;;;5022457;28;20923;-68
2023/12/06 04:24:15;;;;;;;18.20;17.57;;;19.90;48.60;;;;;;5023045;28;20491;-68
2023/12/06 04:26:44;;;;;;;15.93;15.33;;;19.90;48.60;;;;;;5021155;28;20473;-68
2023/12/06 04:29:11;;;;;;;16.00;15.40;;;19.90;48.60;;;;;;5019656;28;20872;-68
2023/12/06 04:31:38;;;;;;;16.50;15.80;;;19.90;48.60;;;;;;5020919;28;20932;-68
2023/12/06 04:34:05;;;;;;;16.20;15.63;;;19.90;48.60;;;;;;5023151;28;20869;-68
2023/12/06 04:36:31;;;;;;;16.37;15.77;;;19.90;48.70;;;;;;5022301;28;20473;-68
2023/12/06 04:38:58;;;;;;;15.90;15.20;;;19.80;48.60;;;;;;5019620;28;20481;-68
2023/12/06 04:41:26;;;;;;;16.20;15.60;;;19.80;48.60;;;;;;5019613;28;20505;-68
2023/12/06 04:43:54;;;;;;;16.10;15.40;;;19.80;48.60;;;;;;5022545;28;20863;-68
2023/12/06 04:46:21;;;;;;;17.33;16.70;;;19.80;48.70;;;;;;5022691;28;20445;-68
2023/12/06 04:48:48;;;;;;;16.63;16.03;;;19.80;48.80;;;;;;5021683;28;20478;-68
2023/12/06 04:51:16;;;;;;;15.93;15.43;;;19.80;48.90;;;;;;5022957;28;20916;-68
2023/12/06 04:53:43;;;;;;;16.20;15.60;;;19.80;49.10;;;;;;5020755;28;20484;-68
2023/12/06 04:56:12;;;;;;;17.17;16.57;;;19.80;49.20;;;;;;5021087;28;20478;-68
2023/12/06 04:58:39;;;;;;;16.77;16.17;;;19.80;49.20;;;;;;5022753;28;20440;-68
2023/12/06 05:01:07;;;;;;;18.00;17.20;;;19.80;49.30;;;;;;5023149;28;20477;-68
2023/12/06 05:03:35;;;;;;;17.67;17.07;;;19.80;49.30;;;;;;5023539;28;20449;-68
2023/12/06 05:06:02;;;;;;;18.27;17.57;;;19.70;49.20;;;;;;5026200;28;20527;-68
2023/12/06 05:08:30;;;;;;;17.93;17.10;;;19.70;49.30;;;;;;5026437;28;20941;-68
2023/12/06 05:10:57;;;;;;;18.00;17.40;;;19.80;49.30;;;;;;5014978;28;20477;-68
2023/12/06 05:13:24;;;;;;;19.40;18.70;;;19.80;49.20;;;;;;5022968;28;20805;-68
2023/12/06 05:15:50;;;;;;;19.13;17.80;;;19.80;49.00;;;;;;5025280;28;20489;-67
2023/12/06 05:18:19;;;;;;;19.63;18.27;;;19.90;49.30;;;;;;5026330;28;20495;-68
2023/12/06 05:20:46;;;;;;;21.07;19.87;;;19.90;49.90;;;;;;5023991;28;20565;-68
2023/12/06 05:23:12;;;;;;;21.07;19.30;;;19.90;50.10;;;;;;5022631;28;20477;-68
2023/12/06 05:25:39;;;;;;;20.07;18.33;;;19.90;49.60;;;;;;5022240;28;20500;-68
2023/12/06 05:28:06;;;;;;;21.47;19.90;;;19.90;50.00;;;;;;5022235;28;20507;-68
2023/12/06 05:30:33;;;;;;;22.70;20.80;;;20.00;51.70;;;;;;5022710;28;20472;-67
2023/12/06 05:33:00;;;;;;;23.97;21.73;;;19.90;55.10;;;;;;5025920;28;20465;-67
2023/12/06 05:35:28;;;;;;;22.40;20.93;;;20.00;56.40;;;;;;5024459;28;20485;-68
2023/12/06 05:37:55;;;;;;;27.77;21.70;;;20.00;57.10;;;;;;5022550;28;20503;-68
2023/12/06 05:40:22;;;;;;;24.10;21.40;;;20.00;57.20;;;;;;5022201;28;20822;-68
2023/12/06 05:42:49;;;;;;;30.43;21.30;;;20.00;56.70;;;;;;5024210;28;20446;-68
2023/12/06 05:45:16;;;;;;;22.77;21.03;;;20.00;56.10;;;;;;5025739;28;20489;-68
2023/12/06 05:47:43;;;;;;;19.87;18.67;;;20.00;55.60;;;;;;5024100;28;20449;-68
2023/12/06 05:50:12;;;;;;;23.03;21.30;;;20.00;55.20;;;;;;5022153;28;20954;-68
2023/12/06 05:52:41;;;;;;;21.70;20.47;;;20.00;54.80;;;;;;5023039;28;20938;-68
2023/12/06 05:55:08;;;;;;;26.00;24.27;;;20.00;54.40;;;;;;5025149;28;20507;-68
2023/12/06 05:57:35;;;;;;;24.63;22.83;;;20.00;54.10;;;;;;5025037;28;20495;-68
2023/12/06 06:00:05;;;;;;;23.37;21.53;;;19.90;53.80;;;;;;5022023;28;20478;-68
2023/12/06 06:02:32;;;;;;;22.00;20.83;;;19.90;53.50;;;;;;5021847;28;21004;-68
2023/12/06 06:04:59;;;;;;;20.77;19.60;;;19.90;53.20;;;;;;5025457;28;20504;-68
2023/12/06 06:07:26;;;;;;;21.80;20.17;;;20.00;53.00;;;;;;5025297;28;20473;-68
2023/12/06 06:09:54;;;;;;;20.80;19.50;;;19.90;52.80;;;;;;5021605;28;20450;-68
2023/12/06 06:12:21;;;;;;;21.27;19.87;;;19.90;52.50;;;;;;5021303;28;21053;-68
2023/12/06 06:14:48;;;;;;;19.43;18.20;;;19.90;52.40;;;;;;5023990;28;20524;-68
2023/12/06 06:17:15;;;;;;;21.03;19.63;;;19.90;52.20;;;;;;5025102;28;20477;-68
2023/12/06 06:19:42;;;;;;;20.57;19.23;;;19.90;52.10;;;;;;5023682;28;20868;-68
2023/12/06 06:22:09;;;;;;;20.97;19.70;;;19.90;51.90;;;;;;5021644;28;20565;-68
2023/12/06 06:24:36;;;;;;;19.50;18.50;;;19.90;51.70;;;;;;5021727;28;20505;-68
2023/12/06 06:27:05;;;;;;;19.17;18.10;;;19.90;51.60;;;;;;5024763;28;20445;-68
2023/12/06 06:29:32;;;;;;;18.50;17.50;;;19.90;51.40;;;;;;5024832;28;20480;-67
2023/12/06 06:31:58;;;;;;;18.57;17.57;;;19.90;51.30;;;;;;5024918;28;20847;-67
2023/12/06 06:34:25;;;;;;;18.40;17.43;;;19.90;51.10;;;;;;5024928;28;20500;-68
2023/12/06 06:36:52;;;;;;;18.47;17.70;;;19.90;51.00;;;;;;5021994;28;20441;-68
2023/12/06 06:39:19;;;;;;;18.70;17.17;;;19.80;50.80;;;;;;5021227;28;20474;-68
2023/12/06 06:41:46;;;;;;;18.50;17.50;;;19.90;50.80;;;;;;5022458;28;20478;-67
2023/12/06 06:44:14;;;;;;;18.50;17.50;;;19.90;50.70;;;;;;5024661;28;20471;-67
2023/12/06 06:46:41;;;;;;;18.47;17.57;;;19.90;50.60;;;;;;5023628;28;20872;-68
2023/12/06 06:49:08;;;;;;;19.33;18.23;;;19.90;50.50;;;;;;5021084;28;20489;-68
2023/12/06 06:51:36;;;;;;;19.07;17.90;;;19.90;50.40;;;;;;5021128;28;20470;-68
2023/12/06 06:54:03;;;;;;;20.60;19.20;;;19.90;50.40;;;;;;5024076;28;20460;-68
2023/12/06 06:56:30;;;;;;;17.20;16.37;;;19.90;50.30;;;;;;5024138;28;20503;-68
2023/12/06 06:58:57;;;;;;;19.33;18.03;;;19.90;50.10;;;;;;5021104;28;20538;-68
2023/12/06 07:01:25;;;;;;;18.83;17.83;;;19.90;50.10;;;;;;5020895;28;20509;-68
2023/12/06 07:03:53;;;;;;;19.90;18.70;;;19.90;49.90;;;;;;5023026;28;20486;-68
2023/12/06 07:06:20;;;;;;;20.90;20.00;;;19.90;49.80;;;;;;5024195;28;20480;-67
2023/12/06 07:08:47;;;;;;;19.80;19.00;;;19.90;50.30;;;;;;5022311;28;20445;-67
2023/12/06 07:11:14;;;;;;;22.13;21.03;;;19.90;49.70;;;;;;5020368;28;20961;-68
2023/12/06 07:13:41;;;;;;;21.33;20.33;;;19.90;49.70;;;;;;5021341;28;20986;-68
2023/12/06 07:16:10;;;;;;;20.47;19.57;;;19.90;49.60;;;;;;5023971;28;20469;-68
2023/12/06 07:18:38;;;;;;;19.87;19.07;;;19.90;49.60;;;;;;5023686;28;20445;-68
2023/12/06 07:21:05;;;;;;;20.00;19.17;;;19.90;49.50;;;;;;5020468;28;20580;-68
2023/12/06 07:23:32;;;;;;;18.70;17.97;;;19.90;49.50;;;;;;5019767;28;20527;-68
2023/12/06 07:25:59;;;;;;;19.40;18.60;;;19.80;49.30;;;;;;5023314;28;20476;-68
2023/12/06 07:28:26;;;;;;;20.63;19.10;;;19.80;49.30;;;;;;5023837;28;20519;-68
2023/12/06 07:30:53;;;;;;;20.37;19.37;;;19.80;49.20;;;;;;5021238;28;20473;-67
2023/12/06 07:33:20;;;;;;;19.90;19.10;;;19.80;49.10;;;;;;5020377;28;20478;-68
2023/12/06 07:35:48;;;;;;;20.07;19.00;;;19.80;49.10;;;;;;5021509;28;20458;-68
2023/12/06 07:38:15;;;;;;;20.03;18.93;;;19.80;49.10;;;;;;5023613;28;20475;-68
2023/12/06 07:40:43;;;;;;;18.70;18.00;;;19.80;49.10;;;;;;5022561;28;20484;-68
2023/12/06 07:43:10;;;;;;;18.53;17.80;;;19.80;49.00;;;;;;5020056;28;20494;-68
2023/12/06 07:45:36;;;;;;;19.13;18.43;;;19.70;48.90;;;;;;5020056;28;20862;-68
2023/12/06 07:48:04;;;;;;;20.60;19.67;;;19.80;49.00;;;;;;5023610;28;20869;-68
2023/12/06 07:50:31;;;;;;;20.67;19.77;;;19.80;48.90;;;;;;5023710;28;20537;-68
2023/12/06 07:52:59;;;;;;;21.20;20.40;;;19.80;48.90;;;;;;5020300;28;20497;-68
2023/12/06 07:55:26;;;;;;;17.60;16.97;;;19.80;48.80;;;;;;5020151;22;20507;-66
2023/12/06 07:57:54;;;;;;;19.47;18.67;;;19.80;48.80;;;;;;4992321;28;20529;-66
2023/12/06 08:00:22;;;;;;;18.50;17.80;;;19.80;48.70;;;;;;4992328;28;20478;-65
2023/12/06 08:02:49;;;;;;;18.40;17.60;;;19.80;48.70;;;;;;4992196;28;20565;-66
2023/12/06 08:05:19;;;;;;;18.87;18.17;;;19.80;48.70;;;;;;4992206;28;20495;-66
2023/12/06 08:07:46;;;;;;;19.67;18.77;;;19.80;48.60;;;;;;4992080;28;20509;-66
2023/12/06 08:10:22;;;;;;;20.33;19.47;;;19.80;48.60;;;;;;4992122;28;20505;-65
2023/12/06 08:12:49;;;;;;;18.70;18.00;;;19.80;48.50;;;;;;4991744;28;20449;-65
2023/12/06 08:15:16;;;;;;;19.63;18.93;;;19.80;48.50;;;;;;4992233;28;20469;-65
2023/12/06 08:17:43;;;;;;;19.27;18.43;;;19.80;48.50;;;;;;4992141;28;20478;-66
2023/12/06 08:20:11;;;;;;;18.00;17.40;;;19.80;48.40;;;;;;4992194;28;20485;-65
2023/12/06 08:22:37;;;;;;;19.13;18.37;;;19.80;48.40;;;;;;4992151;28;20652;-65
2023/12/06 08:25:06;;;;;;;21.00;20.20;;;19.80;48.40;;;;;;4991971;28;20929;-66
2023/12/06 08:27:35;;;;;;;20.40;19.63;;;19.80;48.30;;;;;;4992264;28;20453;-65
2023/12/06 08:30:03;;;;;;;19.20;18.50;;;19.80;48.30;;;;;;4992206;28;20462;-66
2023/12/06 08:32:30;;;;;;;19.73;18.93;;;19.80;48.30;;;;;;4992212;28;20439;-65
2023/12/06 08:34:57;;;;;;;20.07;19.37;;;19.80;48.20;;;;;;4995684;28;20458;-66
2023/12/06 08:37:25;;;;;;;19.20;18.47;;;19.80;48.20;;;;;;4995823;28;20478;-66
2023/12/06 08:39:52;;;;;;;20.33;19.53;;;19.80;48.20;;;;;;4995808;28;20509;-65
2023/12/06 08:42:19;;;;;;;18.73;18.13;;;19.80;48.20;;;;;;4995826;28;20525;-65
2023/12/06 08:44:47;;;;;;;21.70;20.70;;;19.80;48.20;;;;;;4996125;28;20501;-65
2023/12/06 08:47:14;;;;;;;20.70;19.90;;;19.80;48.10;;;;;;4995998;28;20474;-65
2023/12/06 08:49:41;;;;;;;20.40;19.63;;;19.80;48.10;;;;;;4995745;28;20534;-65
2023/12/06 08:52:10;;;;;;;19.93;19.23;;;19.70;48.00;;;;;;4995759;28;20877;-65
2023/12/06 08:54:38;;;;;;;20.60;19.80;;;19.80;48.10;;;;;;4995712;28;20566;-66
2023/12/06 08:57:06;;;;;;;19.90;19.20;;;19.70;47.90;;;;;;4995625;28;20852;-64
2023/12/06 08:59:33;;;;;;;20.27;19.53;;;19.70;47.90;;;;;;4995693;28;20453;-65
2023/12/06 09:02:01;;;;;;;19.23;18.40;;;19.70;47.90;;;;;;4995473;28;21021;-65
2023/12/06 09:04:28;;;;;;;19.37;18.50;;;19.70;47.90;;;;;;4995624;28;20883;-66
2023/12/06 09:06:56;;;;;;;20.20;19.50;;;19.70;47.90;;;;;;4995569;28;20478;-64
2023/12/06 09:09:23;;;;;;;19.80;19.10;;;19.70;47.90;;;;;;4995362;28;20447;-65
2023/12/06 09:11:49;;;;;;;22.00;21.30;;;19.70;47.90;;;;;;4995003;28;20474;-66
2023/12/06 09:14:16;;;;;;;18.73;18.13;;;19.80;47.90;;;;;;4995553;28;20481;-66
2023/12/06 09:16:43;;;;;;;20.70;19.97;;;19.80;47.80;;;;;;4995406;28;20441;-65
2023/12/06 09:19:11;;;;;;;18.70;18.10;;;19.70;47.70;;;;;;4995240;28;20478;-65
2023/12/06 09:21:44;;;;;;;19.57;18.97;;;19.80;47.80;;;;;;4995244;28;20929;-65
2023/12/06 09:24:11;;;;;;;18.67;17.97;;;19.80;47.80;;;;;;4995467;28;20450;-65
2023/12/06 09:26:38;;;;;;;19.33;18.63;;;19.80;48.30;;;;;;4994972;28;20442;-66
2023/12/06 09:29:06;;;;;;;20.33;19.63;;;19.80;47.80;;;;;;4995038;28;21013;-65
2023/12/06 09:31:33;;;;;;;20.03;19.23;;;19.80;47.70;;;;;;4995160;28;20442;-66
2023/12/06 09:34:01;;;;;;;19.30;18.70;;;19.80;47.70;;;;;;4995107;28;20475;-65
2023/12/06 09:36:30;;;;;;;20.90;20.10;;;19.80;47.70;;;;;;4994921;28;20969;-66
2023/12/06 09:38:56;;;;;;;18.97;18.33;;;19.80;47.70;;;;;;4994930;28;20870;-65
2023/12/06 09:41:27;;;;;;;19.47;18.77;;;19.80;47.60;;;;;;4994599;28;20519;-65
2023/12/06 09:43:54;;;;;;;20.43;19.77;;;19.80;47.60;;;;;;4995165;28;20474;-65
2023/12/06 09:46:21;;;;;;;19.53;18.73;;;19.80;47.60;;;;;;4993749;28;20505;-65
2023/12/06 09:48:48;;;;;;;21.80;21.03;;;19.80;47.60;;;;;;4994774;28;20443;-65
2023/12/06 09:51:17;;;;;;;19.07;18.43;;;19.80;47.60;;;;;;4994799;28;20805;-66
2023/12/06 09:53:45;;;;;;;20.70;19.90;;;19.80;47.50;;;;;;4994783;28;20439;-66
2023/12/06 09:56:14;;;;;;;21.90;21.10;;;19.80;47.50;;;;;;4994155;28;20499;-66
2023/12/06 09:58:41;;;;;;;21.50;20.50;;;19.80;47.50;;;;;;4994551;28;20482;-66
2023/12/06 10:01:09;;;;;;;20.00;19.23;;;19.80;47.50;;;;;;4994696;28;20439;-66
2023/12/06 10:03:38;;;;;;;21.03;20.33;;;19.80;47.40;;;;;;4994646;28;20482;-65
2023/12/06 10:06:05;;;;;;;20.50;19.80;;;19.80;47.40;;;;;;4994275;28;20467;-66
2023/12/06 10:08:33;;;;;;;20.17;19.57;;;19.70;47.30;;;;;;4994322;28;20443;-65
2023/12/06 10:11:04;;;;;;;21.70;20.90;;;19.70;47.30;;;;;;4994019;28;20526;-66
2023/12/06 10:13:35;;;;;;;21.50;20.80;;;19.70;47.30;;;;;;4994182;28;20475;-66
2023/12/06 10:16:02;;;;;;;21.33;20.63;;;19.70;47.30;;;;;;4994175;28;20558;-66
2023/12/06 10:18:29;;;;;;;20.17;19.53;;;19.70;47.30;;;;;;4994272;28;20474;-66
2023/12/06 10:20:56;;;;;;;21.00;20.33;;;19.70;47.30;;;;;;4994217;28;20490;-66
2023/12/06 10:23:23;;;;;;;20.60;20.00;;;19.70;47.30;;;;;;4994249;28;20478;-65
2023/12/06 10:25:51;;;;;;;20.63;19.93;;;19.70;47.30;;;;;;4993746;28;20575;-65
2023/12/06 10:28:20;;;;;;;19.73;19.10;;;19.70;47.30;;;;;;4994030;28;20455;-66
2023/12/06 10:30:47;;;;;;;21.43;20.73;;;19.70;47.30;;;;;;4994009;28;20475;-66
2023/12/06 10:33:18;;;;;;;21.33;20.53;;;19.70;47.20;;;;;;4993964;28;20471;-66
2023/12/06 10:35:46;;;;;;;20.37;19.67;;;19.70;47.30;;;;;;4993744;28;20487;-66
2023/12/06 10:38:15;;;;;;;19.60;19.00;;;19.70;47.20;;;;;;4993841;28;20443;-66
2023/12/06 10:40:42;;;;;;;20.07;19.37;;;19.70;47.30;;;;;;4993481;28;20478;-66
2023/12/06 10:43:10;;;;;;;20.00;19.30;;;19.70;47.20;;;;;;4993724;28;20483;-65
2023/12/06 10:45:40;;;;;;;20.57;19.87;;;19.70;47.20;;;;;;4993458;28;20517;-65
2023/12/06 10:48:10;;;;;;;20.30;19.70;;;19.70;47.20;;;;;;4993557;28;20443;-66
2023/12/06 10:50:37;;;;;;;20.50;19.60;;;19.70;47.20;;;;;;4993724;28;20793;-66
2023/12/06 10:53:05;;;;;;;20.17;19.57;;;19.70;47.20;;;;;;4993692;28;20474;-65
2023/12/06 10:55:34;;;;;;;19.70;19.10;;;19.70;47.20;;;;;;4993067;28;20907;-65
2023/12/06 10:58:01;;;;;;;19.50;18.80;;;19.70;47.10;;;;;;4993275;28;20529;-65
2023/12/06 11:00:28;;;;;;;19.70;19.07;;;19.70;47.10;;;;;;4993400;28;20475;-65
2023/12/06 11:02:57;;;;;;;19.83;19.13;;;19.70;47.10;;;;;;4993340;28;20518;-65
2023/12/06 11:05:25;;;;;;;20.03;19.43;;;19.70;47.10;;;;;;4993172;28;20506;-65
2023/12/06 11:08:13;;;;;;;19.63;19.03;;;19.70;47.10;;;;;;4993309;28;20451;-66
2023/12/06 11:10:52;;;;;;;18.50;17.70;;;19.70;47.10;;;;;;4993041;28;20431;-66
2023/12/06 11:13:32;;;;;;;20.93;20.13;;;19.70;47.00;;;;;;4993051;28;20907;-65
2023/12/06 11:16:09;;;;;;;19.57;18.97;;;19.70;47.10;;;;;;4993080;28;20490;-65
2023/12/06 11:18:44;;;;;;;20.10;19.30;;;19.70;47.10;;;;;;4993250;28;20521;-66
2023/12/06 11:21:13;;;;;;;19.57;18.93;;;19.70;47.00;;;;;;4993415;28;20443;-66
2023/12/06 11:23:41;;;;;;;19.83;19.23;;;19.70;47.00;;;;;;4993030;28;20521;-66
2023/12/06 11:26:08;;;;;;;21.20;20.50;;;19.70;47.10;;;;;;4992624;28;20906;-66
2023/12/06 11:28:39;;;;;;;20.77;19.90;;;19.70;47.00;;;;;;4992987;28;20458;-66
2023/12/06 11:31:07;;;;;;;21.57;20.77;;;19.70;47.00;;;;;;4993027;28;20517;-66
2023/12/06 11:33:34;;;;;;;20.67;20.00;;;19.70;47.00;;;;;;4992909;28;20435;-66
2023/12/06 11:36:02;;;;;;;19.57;18.93;;;19.70;47.00;;;;;;4992887;28;20494;-66
2023/12/06 11:38:33;;;;;;;20.23;19.53;;;19.70;47.00;;;;;;4992809;28;20443;-66
2023/12/06 11:41:00;;;;;;;20.73;20.13;;;19.70;47.00;;;;;;4992746;28;20879;-66
2023/12/06 11:43:30;;;;;;;20.33;19.60;;;19.70;47.00;;;;;;4992671;28;20573;-66
2023/12/06 11:46:03;;;;;;;20.30;19.60;;;19.70;47.00;;;;;;4992625;28;20817;-66
2023/12/06 11:48:30;;;;;;;18.90;18.30;;;19.70;47.00;;;;;;4992616;28;20443;-65
2023/12/06 11:51:00;;;;;;;20.00;19.30;;;19.70;47.00;;;;;;4992594;28;20474;-66
2023/12/06 11:53:29;;;;;;;19.10;18.50;;;19.70;47.00;;;;;;4992579;28;20485;-66
2023/12/06 11:55:56;;;;;;;20.70;20.03;;;19.70;47.00;;;;;;4992085;28;20513;-66
2023/12/06 11:58:29;;;;;;;18.33;17.83;;;19.70;47.00;;;;;;4992619;28;20475;-66
2023/12/06 12:00:56;;;;;;;19.40;18.80;;;19.70;47.00;;;;;;4992578;28;20443;-66
2023/12/06 12:03:24;;;;;;;19.30;18.70;;;19.70;47.00;;;;;;4992308;28;20518;-65
2023/12/06 12:05:51;;;;;;;18.67;18.07;;;19.70;46.90;;;;;;4992273;28;20478;-66
2023/12/06 12:08:19;;;;;;;19.90;19.20;;;19.70;46.90;;;;;;4991988;28;20478;-66
2023/12/06 12:10:48;;;;;;;19.43;18.83;;;19.70;46.90;;;;;;4992348;28;20453;-66
2023/12/06 12:13:18;;;;;;;18.80;18.20;;;19.70;46.90;;;;;;4992344;28;20479;-66
2023/12/06 12:15:51;;;;;;;18.97;18.17;;;19.70;46.90;;;;;;4992360;28;20489;-65
2023/12/06 12:18:19;;;;;;;18.40;17.80;;;19.80;46.90;;;;;;4992525;28;20449;-66
2023/12/06 12:20:46;;;;;;;19.20;18.50;;;19.80;46.90;;;;;;4992384;28;20455;-66
2023/12/06 12:23:13;;;;;;;18.57;17.90;;;19.70;46.80;;;;;;4992204;28;20577;-66
2023/12/06 12:25:48;;;;;;;18.23;17.60;;;19.70;46.80;;;;;;4991996;28;20501;-66
2023/12/06 12:28:18;;;;;;;19.00;18.33;;;19.70;46.80;;;;;;4992383;28;20442;-65
2023/12/06 12:30:46;;;;;;;20.43;19.73;;;19.70;46.80;;;;;;4992301;28;20467;-66